createdAt,value
2022-08-09T00:00:13.879Z,78.90
2022-08-09T00:02:48.974Z,79.00
2022-08-09T00:06:16.231Z,78.80
2022-08-09T00:08:10.066Z,79.20
2022-08-09T00:10:38.587Z,79.50
2022-08-09T00:13:16.982Z,79.90
2022-08-09T00:15:59.274Z,80.20
2022-08-09T00:18:35.016Z,80.60
2022-08-09T00:21:08.637Z,81.00
2022-08-09T00:23:58.021Z,81.10
2022-08-09T00:26:29.935Z,81.00
2022-08-09T00:29:12.509Z,81.60
2022-08-09T00:31:50.764Z,81.70
2022-08-09T00:34:24.923Z,82.10
2022-08-09T00:36:56.096Z,82.00
2022-08-09T00:40:09.793Z,82.10
2022-08-09T00:44:10.305Z,82.30
2022-08-09T00:44:58.905Z,82.60
2022-08-09T00:47:35.840Z,82.80
2022-08-09T00:50:07.535Z,83.10
2022-08-09T00:52:41.928Z,83.20
2022-08-09T00:55:10.371Z,83.70
2022-08-09T00:57:59.211Z,84.30
2022-08-09T01:00:27.526Z,84.40
2022-08-09T01:03:13.575Z,84.30
2022-08-09T01:05:56.962Z,84.10
2022-08-09T01:08:35.292Z,84.20
2022-08-09T01:11:23.963Z,84.40
2022-08-09T01:14:02.401Z,84.60
2022-08-09T01:16:38.993Z,84.40
2022-08-09T01:19:43.226Z,84.50
2022-08-09T01:22:54.624Z,84.90
2022-08-09T01:25:58.950Z,85.00
2022-08-09T01:28:27.017Z,85.00
2022-08-09T01:30:59.048Z,85.10
2022-08-09T01:33:29.737Z,85.50
2022-08-09T01:36:11.235Z,85.70
2022-08-09T01:38:46.435Z,86.00
2022-08-09T01:41:25.930Z,86.60
2022-08-09T01:43:58.944Z,87.10
2022-08-09T01:46:41.606Z,88.10
2022-08-09T01:49:15.755Z,88.30
2022-08-09T01:51:53.298Z,88.20
2022-08-09T01:54:32.732Z,88.70
2022-08-09T01:57:04.957Z,89.00
2022-08-09T01:59:50.890Z,90.00
2022-08-09T02:02:30.110Z,89.40
2022-08-09T02:05:05.705Z,90.10
2022-08-09T02:08:39.692Z,90.40
2022-08-09T02:10:39.166Z,90.60
2022-08-09T02:13:09.430Z,90.80
2022-08-09T02:15:49.627Z,91.00
2022-08-09T02:18:22.996Z,91.40
2022-08-09T02:20:55.983Z,92.00
2022-08-09T02:23:49.285Z,92.40
2022-08-09T02:26:25.220Z,92.90
2022-08-09T02:29:00.344Z,93.40
2022-08-09T02:31:38.411Z,93.90
2022-08-09T02:34:13.631Z,94.60
2022-08-09T02:36:55.207Z,95.10
2022-08-09T02:39:34.210Z,95.90
2022-08-09T02:42:16.582Z,97.00
2022-08-09T02:44:50.301Z,97.70
2022-08-09T02:47:21.337Z,98.50
2022-08-09T02:50:01.202Z,99.20
2022-08-09T02:52:37.824Z,99.90
2022-08-09T02:55:20.373Z,99.90
2022-08-09T02:58:00.201Z,99.90
2022-08-09T03:00:39.573Z,99.90
2022-08-09T03:04:13.162Z,99.90
2022-08-09T03:06:14.971Z,99.90
2022-08-09T03:08:46.118Z,99.90
2022-08-09T03:12:04.178Z,99.90
2022-08-09T03:14:05.297Z,99.90
2022-08-09T03:16:37.401Z,99.90
2022-08-09T03:19:14.064Z,99.90
2022-08-09T03:21:58.316Z,99.90
2022-08-09T03:24:36.825Z,99.90
2022-08-09T03:27:09.855Z,99.90
2022-08-09T03:29:57.260Z,99.90
2022-08-09T03:32:27.609Z,99.90
2022-08-09T03:34:55.848Z,99.90
2022-08-09T03:37:54.614Z,99.90
2022-08-09T03:40:13.058Z,99.90
2022-08-09T03:42:43.069Z,99.90
2022-08-09T03:45:11.019Z,99.90
2022-08-09T03:47:39.940Z,99.90
2022-08-09T03:50:10.687Z,99.90
2022-08-09T03:52:40.575Z,99.90
2022-08-09T03:55:10.651Z,99.90
2022-08-09T03:57:44.644Z,99.90
2022-08-09T04:00:20.910Z,99.90
2022-08-09T04:02:52.748Z,99.90
2022-08-09T04:05:27.496Z,99.90
2022-08-09T04:07:56.803Z,99.90
2022-08-09T04:10:28.840Z,99.90
2022-08-09T04:13:01.398Z,99.90
2022-08-09T04:16:18.667Z,99.90
2022-08-09T04:18:19.455Z,99.90
2022-08-09T04:20:48.832Z,99.90
2022-08-09T04:23:17.419Z,99.90
2022-08-09T04:25:51.913Z,99.90
2022-08-09T04:28:33.084Z,99.90
2022-08-09T04:31:08.270Z,99.90
2022-08-09T04:33:51.617Z,99.90
2022-08-09T04:36:25.938Z,99.90
2022-08-09T04:38:54.344Z,99.90
2022-08-09T04:41:24.044Z,99.90
2022-08-09T04:44:04.936Z,99.90
2022-08-09T04:46:36.511Z,99.90
2022-08-09T04:49:22.339Z,99.90
2022-08-09T04:52:07.395Z,99.90
2022-08-09T04:54:36.870Z,99.90
2022-08-09T04:57:04.743Z,99.90
2022-08-09T04:59:36.178Z,99.90
2022-08-09T05:02:03.475Z,99.90
2022-08-09T05:04:31.271Z,99.90
2022-08-09T05:06:58.844Z,99.90
2022-08-09T05:09:32.625Z,99.90
2022-08-09T05:12:12.730Z,99.90
2022-08-09T05:14:41.001Z,99.90
2022-08-09T05:18:36.933Z,99.90
2022-08-09T05:19:56.828Z,99.90
2022-08-09T05:22:33.607Z,99.90
2022-08-09T05:25:11.643Z,99.90
2022-08-09T05:27:45.398Z,99.90
2022-08-09T05:30:14.400Z,99.90
2022-08-09T05:32:43.604Z,99.90
2022-08-09T05:35:11.451Z,99.90
2022-08-09T05:37:47.814Z,99.90
2022-08-09T05:40:22.022Z,99.90
2022-08-09T05:42:49.886Z,99.90
2022-08-09T05:45:18.114Z,99.90
2022-08-09T05:47:52.545Z,99.90
2022-08-09T05:50:36.033Z,99.90
2022-08-09T05:53:16.800Z,99.90
2022-08-09T05:55:58.415Z,99.90
2022-08-09T05:58:25.529Z,99.90
2022-08-09T06:00:53.687Z,99.90
2022-08-09T06:03:20.687Z,99.90
2022-08-09T06:05:57.272Z,99.90
2022-08-09T06:08:29.528Z,99.90
2022-08-09T06:10:59.329Z,99.90
2022-08-09T06:13:28.575Z,99.90
2022-08-09T06:16:04.998Z,99.90
2022-08-09T06:18:32.770Z,99.90
2022-08-09T06:21:01.570Z,99.90
2022-08-09T06:23:57.460Z,99.90
2022-08-09T06:26:22.719Z,99.90
2022-08-09T06:28:59.954Z,99.90
2022-08-09T06:31:31.488Z,99.90
2022-08-09T06:34:06.531Z,99.90
2022-08-09T06:36:34.407Z,99.90
2022-08-09T06:39:02.639Z,99.90
2022-08-09T06:42:01.234Z,99.90
2022-08-09T06:44:25.111Z,99.90
2022-08-09T06:46:55.465Z,99.80
2022-08-09T06:49:29.197Z,98.80
2022-08-09T06:52:10.798Z,98.90
2022-08-09T06:54:39.058Z,97.70
2022-08-09T06:57:08.398Z,98.20
2022-08-09T07:00:48.976Z,96.30
2022-08-09T07:02:30.912Z,95.80
2022-08-09T07:04:59.992Z,94.80
2022-08-09T07:07:59.646Z,94.10
2022-08-09T07:10:22.629Z,93.40
2022-08-09T07:12:57.421Z,93.30
2022-08-09T07:16:35.381Z,92.20
2022-08-09T07:18:13.254Z,91.50
2022-08-09T07:20:43.446Z,91.00
2022-08-09T07:23:18.641Z,89.90
2022-08-09T07:25:52.503Z,89.10
2022-08-09T07:28:31.298Z,88.10
2022-08-09T07:31:04.744Z,86.20
2022-08-09T07:33:52.103Z,85.20
2022-08-09T07:36:19.789Z,84.70
2022-08-09T07:38:55.170Z,83.70
2022-08-09T07:41:26.398Z,83.10
2022-08-09T07:43:56.295Z,81.20
2022-08-09T07:46:23.462Z,79.50
2022-08-09T07:49:00.159Z,78.70
2022-08-09T07:52:05.314Z,77.80
2022-08-09T07:54:15.687Z,77.60
2022-08-09T07:56:54.567Z,76.60
2022-08-09T07:59:34.197Z,73.00
2022-08-09T08:02:09.094Z,73.10
2022-08-09T08:04:36.650Z,71.80
2022-08-09T08:07:15.508Z,69.80
2022-08-09T08:09:55.181Z,69.60
2022-08-09T08:12:42.439Z,67.70
2022-08-09T08:15:11.538Z,68.20
2022-08-09T08:17:53.973Z,67.60
2022-08-09T08:20:29.283Z,68.00
2022-08-09T08:23:03.428Z,67.50
2022-08-09T08:25:46.222Z,66.90
2022-08-09T08:28:15.057Z,65.50
2022-08-09T08:30:44.335Z,64.80
2022-08-09T08:33:11.757Z,64.70
2022-08-09T08:35:58.225Z,62.10
2022-08-09T08:38:26.079Z,61.60
2022-08-09T08:40:57.009Z,62.20
2022-08-09T08:43:26.592Z,60.20
2022-08-09T08:46:04.328Z,59.40
2022-08-09T08:48:51.563Z,58.40
2022-08-09T08:51:23.902Z,57.30
2022-08-09T08:54:02.668Z,57.90
2022-08-09T08:56:34.421Z,54.80
2022-08-09T08:59:19.155Z,56.70
2022-08-09T09:01:53.290Z,55.50
2022-08-09T09:04:29.654Z,53.40
2022-08-09T09:07:03.127Z,50.70
2022-08-09T09:09:58.404Z,50.20
2022-08-09T09:12:29.274Z,50.90
2022-08-09T09:14:58.914Z,51.60
2022-08-09T09:17:26.042Z,52.00
2022-08-09T09:20:15.382Z,52.20
2022-08-09T09:22:57.731Z,53.10
2022-08-09T09:26:04.598Z,53.00
2022-08-09T09:29:01.899Z,51.70
2022-08-09T09:32:06.265Z,51.50
2022-08-09T09:34:18.382Z,51.20
2022-08-09T09:37:27.373Z,51.00
2022-08-09T09:40:00.017Z,50.60
2022-08-09T09:42:30.949Z,47.50
2022-08-09T09:45:03.941Z,48.40
2022-08-09T09:47:32.467Z,47.40
2022-08-09T09:50:15.698Z,47.80
2022-08-09T09:52:56.432Z,46.70
2022-08-09T09:55:31.249Z,48.30
2022-08-09T09:58:18.699Z,45.50
2022-08-09T10:00:59.197Z,44.50
2022-08-09T10:03:39.706Z,44.50
2022-08-09T10:06:07.011Z,41.90
2022-08-09T10:08:43.104Z,42.90
2022-08-09T10:11:54.041Z,42.30
2022-08-09T10:14:27.397Z,43.20
2022-08-09T10:17:05.217Z,40.40
2022-08-09T10:19:45.851Z,39.70
2022-08-09T10:22:12.990Z,40.30
2022-08-09T10:24:40.633Z,40.80
2022-08-09T10:27:10.282Z,41.90
2022-08-09T10:30:48.143Z,41.40
2022-08-09T10:32:50.454Z,42.40
2022-08-09T10:35:18.243Z,43.40
2022-08-09T10:37:47.758Z,42.70
2022-08-09T10:40:34.851Z,41.70
2022-08-09T10:43:05.505Z,41.60
2022-08-09T10:45:42.401Z,42.00
2022-08-09T10:48:38.022Z,42.30
2022-08-09T10:51:20.671Z,42.30
2022-08-09T10:54:04.898Z,41.20
2022-08-09T10:56:35.405Z,41.30
2022-08-09T10:59:23.357Z,41.90
2022-08-09T11:03:17.961Z,42.00
2022-08-09T11:05:25.397Z,41.50
2022-08-09T11:08:17.489Z,42.40
2022-08-09T11:10:53.380Z,42.60
2022-08-09T11:13:51.295Z,42.90
2022-08-09T11:16:35.264Z,43.80
2022-08-09T11:19:02.904Z,43.60
2022-08-09T11:22:10.398Z,41.60
2022-08-09T11:24:57.941Z,41.80
2022-08-09T11:28:02.819Z,41.60
2022-08-09T11:30:33.577Z,41.40
2022-08-09T11:33:08.644Z,40.60
2022-08-09T11:35:49.539Z,38.60
2022-08-09T11:38:28.841Z,38.00
2022-08-09T11:41:38.461Z,39.80
2022-08-09T11:44:08.098Z,39.70
2022-08-09T11:46:56.913Z,39.30
2022-08-09T11:50:55.631Z,40.70
2022-08-09T11:53:59.695Z,42.80
2022-08-09T11:56:02.773Z,39.00
2022-08-09T11:58:33.013Z,40.10
2022-08-09T12:01:15.389Z,40.10
2022-08-09T12:04:05.279Z,39.60
2022-08-09T12:06:35.019Z,39.90
2022-08-09T12:09:19.719Z,40.00
2022-08-09T12:12:03.068Z,40.40
2022-08-09T12:14:40.651Z,40.60
2022-08-09T12:17:28.328Z,40.70
2022-08-09T12:20:21.821Z,41.10
2022-08-09T12:22:55.908Z,39.10
2022-08-09T12:25:36.841Z,39.00
2022-08-09T12:29:12.462Z,38.30
2022-08-09T12:31:02.844Z,39.00
2022-08-09T12:33:58.988Z,39.30
2022-08-09T12:36:33.491Z,39.40
2022-08-09T12:39:01.584Z,39.30
2022-08-09T12:41:38.929Z,39.50
2022-08-09T12:44:10.245Z,40.70
2022-08-09T12:46:49.185Z,39.50
2022-08-09T12:49:17.962Z,39.80
2022-08-09T12:52:01.012Z,37.60
2022-08-09T12:54:30.958Z,38.60
2022-08-09T12:56:58.989Z,38.10
2022-08-09T12:59:57.720Z,37.60
2022-08-09T13:02:17.624Z,38.30
2022-08-09T13:05:02.392Z,37.20
2022-08-09T13:07:50.714Z,39.40
2022-08-09T13:10:17.307Z,37.70
2022-08-09T13:13:10.814Z,37.50
2022-08-09T13:15:35.554Z,38.50
2022-08-09T13:18:06.123Z,38.10
2022-08-09T13:22:34.154Z,37.70
2022-08-09T13:24:16.867Z,38.10
2022-08-09T13:26:31.701Z,38.00
2022-08-09T13:29:12.993Z,38.00
2022-08-09T13:32:15.269Z,38.10
2022-08-09T13:34:42.688Z,37.60
2022-08-09T13:37:11.963Z,37.40
2022-08-09T13:41:51.799Z,38.10
2022-08-09T13:42:26.552Z,37.20
2022-08-09T13:44:53.720Z,37.00
2022-08-09T13:47:31.486Z,37.50
2022-08-09T13:50:29.993Z,37.80
2022-08-09T13:52:58.751Z,37.80
2022-08-09T13:55:28.875Z,39.00
2022-08-09T13:57:58.395Z,38.30
2022-08-09T14:00:28.988Z,39.10
2022-08-09T14:03:03.042Z,38.80
2022-08-09T14:06:00.033Z,37.90
2022-08-09T14:08:30.345Z,38.30
2022-08-09T14:10:58.007Z,37.00
2022-08-09T14:14:22.668Z,37.30
2022-08-09T14:16:18.107Z,37.90
2022-08-09T14:18:49.462Z,38.30
2022-08-09T14:21:24.241Z,38.30
2022-08-09T14:23:57.251Z,39.00
2022-08-09T14:26:35.451Z,38.70
2022-08-09T14:30:04.272Z,38.10
2022-08-09T14:32:04.613Z,36.60
2022-08-09T14:34:41.025Z,37.10
2022-08-09T14:37:08.720Z,37.10
2022-08-09T14:39:40.433Z,36.10
2022-08-09T14:42:31.456Z,37.40
2022-08-09T14:46:54.808Z,38.50
2022-08-09T14:48:02.139Z,37.70
2022-08-09T14:50:37.043Z,38.90
2022-08-09T14:53:11.386Z,38.00
2022-08-09T14:55:41.852Z,37.80
2022-08-09T14:58:11.207Z,38.20
2022-08-09T15:00:42.371Z,38.00
2022-08-09T15:03:20.537Z,39.30
2022-08-09T15:05:54.796Z,39.60
2022-08-09T15:08:31.257Z,38.60
2022-08-09T15:11:00.559Z,38.50
2022-08-09T15:13:55.983Z,38.50
2022-08-09T15:16:30.441Z,39.50
2022-08-09T15:19:05.854Z,38.20
2022-08-09T15:21:58.255Z,39.50
2022-08-09T15:24:28.792Z,38.20
2022-08-09T15:26:55.672Z,39.40
2022-08-09T15:30:56.298Z,39.90
2022-08-09T15:32:28.582Z,40.10
2022-08-09T15:35:00.937Z,40.40
2022-08-09T15:37:38.024Z,41.40
2022-08-09T15:40:22.935Z,40.90
2022-08-09T15:42:58.397Z,41.90
2022-08-09T15:45:29.300Z,40.90
2022-08-09T15:48:05.541Z,41.50
2022-08-09T15:50:38.831Z,41.90
2022-08-09T15:53:18.871Z,41.90
2022-08-09T15:56:18.050Z,43.50
2022-08-09T15:58:40.581Z,42.10
2022-08-09T16:01:08.247Z,43.30
2022-08-09T16:03:38.644Z,42.10
2022-08-09T16:06:27.418Z,42.40
2022-08-09T16:08:56.684Z,43.00
2022-08-09T16:11:30.853Z,43.30
2022-08-09T16:14:06.416Z,44.40
2022-08-09T16:16:37.317Z,43.30
2022-08-09T16:19:10.896Z,43.30
2022-08-09T16:21:41.239Z,43.70
2022-08-09T16:24:29.990Z,43.80
2022-08-09T16:26:57.108Z,43.90
2022-08-09T16:29:37.342Z,45.10
2022-08-09T16:32:33.877Z,44.40
2022-08-09T16:34:58.439Z,44.70
2022-08-09T16:37:53.351Z,44.60
2022-08-09T16:40:29.889Z,44.90
2022-08-09T16:43:04.472Z,45.10
2022-08-09T16:45:32.061Z,45.10
2022-08-09T16:48:41.535Z,45.40
2022-08-09T16:50:49.639Z,45.40
2022-08-09T16:53:26.750Z,45.50
2022-08-09T16:56:03.688Z,46.60
2022-08-09T16:58:36.077Z,47.20
2022-08-09T17:01:04.867Z,47.10
2022-08-09T17:03:32.062Z,46.60
2022-08-09T17:06:06.717Z,46.30
2022-08-09T17:08:44.044Z,47.10
2022-08-09T17:11:32.787Z,47.00
2022-08-09T17:14:16.235Z,47.50
2022-08-09T17:16:54.282Z,47.30
2022-08-09T17:19:21.146Z,47.60
2022-08-09T17:21:47.983Z,47.30
2022-08-09T17:24:28.031Z,48.10
2022-08-09T17:26:58.287Z,47.70
2022-08-09T17:29:31.365Z,47.90
2022-08-09T17:32:02.009Z,47.20
2022-08-09T17:35:00.520Z,47.90
2022-08-09T17:37:19.184Z,47.70
2022-08-09T17:39:52.625Z,47.50
2022-08-09T17:42:40.966Z,47.60
2022-08-09T17:45:23.679Z,47.90
2022-08-09T17:48:02.503Z,48.10
2022-08-09T17:50:37.117Z,48.40
2022-08-09T17:53:19.816Z,48.70
2022-08-09T17:55:53.001Z,48.40
2022-08-09T17:58:27.141Z,48.80
2022-08-09T18:00:58.322Z,49.10
2022-08-09T18:03:25.992Z,49.10
2022-08-09T18:05:56.605Z,49.50
2022-08-09T18:08:27.413Z,49.40
2022-08-09T18:11:01.621Z,49.50
2022-08-09T18:13:54.436Z,49.70
2022-08-09T18:16:30.258Z,50.10
2022-08-09T18:19:03.966Z,50.20
2022-08-09T18:21:47.101Z,50.80
2022-08-09T18:24:17.267Z,51.00
2022-08-09T18:26:46.955Z,51.60
2022-08-09T18:30:35.368Z,51.50
2022-08-09T18:32:05.078Z,51.70
2022-08-09T18:34:39.127Z,52.10
2022-08-09T18:37:10.320Z,52.00
2022-08-09T18:39:54.231Z,52.10
2022-08-09T18:42:21.245Z,52.60
2022-08-09T18:44:56.321Z,52.70
2022-08-09T18:47:27.558Z,52.90
2022-08-09T18:50:02.918Z,52.80
2022-08-09T18:52:34.652Z,53.00
2022-08-09T18:55:02.501Z,53.50
2022-08-09T18:57:38.446Z,54.00
2022-08-09T19:00:19.924Z,54.00
2022-08-09T19:02:51.233Z,54.30
2022-08-09T19:05:48.723Z,54.30
2022-08-09T19:08:10.761Z,54.50
2022-08-09T19:10:41.513Z,54.70
2022-08-09T19:13:22.204Z,55.20
2022-08-09T19:15:52.219Z,55.80
2022-08-09T19:18:33.158Z,55.90
2022-08-09T19:21:09.295Z,56.40
2022-08-09T19:24:32.568Z,56.60
2022-08-09T19:26:31.919Z,57.20
2022-08-09T19:29:15.468Z,57.10
2022-08-09T19:31:51.235Z,57.50
2022-08-09T19:34:21.464Z,57.50
2022-08-09T19:36:50.785Z,58.00
2022-08-09T19:39:17.648Z,58.20
2022-08-09T19:41:48.726Z,58.10
2022-08-09T19:44:24.672Z,58.50
2022-08-09T19:46:53.558Z,59.00
2022-08-09T19:50:07.710Z,59.00
2022-08-09T19:52:08.523Z,59.10
2022-08-09T19:55:12.846Z,59.20
2022-08-09T19:57:42.491Z,59.60
2022-08-09T20:00:10.220Z,60.10
2022-08-09T20:04:09.529Z,60.60
2022-08-09T20:05:25.255Z,60.80
2022-08-09T20:07:59.501Z,61.40
2022-08-09T20:10:36.955Z,61.50
2022-08-09T20:13:06.762Z,61.70
2022-08-09T20:16:33.707Z,61.60
2022-08-09T20:18:22.760Z,61.70
2022-08-09T20:20:55.345Z,61.80
2022-08-09T20:23:23.830Z,62.20
2022-08-09T20:25:53.477Z,62.60
2022-08-09T20:28:28.176Z,62.80
2022-08-09T20:31:05.231Z,62.80
2022-08-09T20:33:41.126Z,62.70
2022-08-09T20:36:12.695Z,63.00
2022-08-09T20:41:32.276Z,63.00
2022-08-09T20:44:04.919Z,63.30
2022-08-09T20:46:42.753Z,63.70
2022-08-09T20:49:12.964Z,64.00
2022-08-09T20:51:42.082Z,64.20
2022-08-09T20:54:12.571Z,64.50
2022-08-09T20:56:41.148Z,64.60
2022-08-09T20:59:08.093Z,65.30
2022-08-09T21:01:49.796Z,65.40
2022-08-09T21:05:51.968Z,65.60
2022-08-09T21:07:11.291Z,65.80
2022-08-09T21:09:56.365Z,66.50
2022-08-09T21:15:23.560Z,66.90
2022-08-09T21:18:21.018Z,66.90
2022-08-09T21:20:54.136Z,67.30
2022-08-09T21:23:21.773Z,67.40
2022-08-09T21:26:03.891Z,67.60
2022-08-09T21:28:35.827Z,68.90
2022-08-09T21:31:19.351Z,68.10
2022-08-09T21:33:50.469Z,68.60
2022-08-09T21:36:18.360Z,68.80
2022-08-09T21:38:56.913Z,68.90
2022-08-09T21:42:04.477Z,68.90
2022-08-09T21:44:15.375Z,69.10
2022-08-09T21:47:00.829Z,69.70
2022-08-09T21:49:29.361Z,69.50
2022-08-09T21:52:16.995Z,69.80
2022-08-09T21:54:59.361Z,70.10
2022-08-09T21:57:39.218Z,70.40
2022-08-09T22:00:32.724Z,70.60
2022-08-09T22:03:06.251Z,70.90
2022-08-09T22:05:42.153Z,71.20
2022-08-09T22:08:13.682Z,71.40
2022-08-09T22:11:50.538Z,71.60
2022-08-09T22:13:35.702Z,72.00
2022-08-09T22:16:07.446Z,72.00
2022-08-09T22:18:37.088Z,72.40
2022-08-09T22:21:09.304Z,72.70
2022-08-09T22:23:59.728Z,73.00
2022-08-09T22:26:35.449Z,72.90
2022-08-09T22:29:09.391Z,73.40
2022-08-09T22:31:38.449Z,73.20
2022-08-09T22:34:15.008Z,73.30
2022-08-09T22:36:45.635Z,73.60
2022-08-09T22:39:46.917Z,73.60
2022-08-09T22:42:02.299Z,74.00
2022-08-09T22:44:32.707Z,74.20
2022-08-09T22:48:10.059Z,74.80
2022-08-09T22:49:52.037Z,74.70
2022-08-09T22:52:19.802Z,75.00
2022-08-09T22:54:47.908Z,75.00
2022-08-09T22:57:15.382Z,75.50
2022-08-09T22:59:55.503Z,75.30
2022-08-09T23:02:27.265Z,75.40
2022-08-09T23:04:55.429Z,75.70
2022-08-09T23:08:22.052Z,75.70
2022-08-09T23:10:32.358Z,76.00
2022-08-09T23:12:59.836Z,76.00
2022-08-09T23:15:27.895Z,76.10
2022-08-09T23:17:55.543Z,76.30
2022-08-09T23:20:23.046Z,76.50
2022-08-09T23:22:49.936Z,76.90
2022-08-09T23:25:16.713Z,76.90
2022-08-09T23:28:14.389Z,77.30
2022-08-09T23:30:30.563Z,77.40
2022-08-09T23:32:57.388Z,77.70
2022-08-09T23:35:24.308Z,78.10
2022-08-09T23:37:51.137Z,78.10
2022-08-09T23:40:18.029Z,78.40
2022-08-09T23:42:45.137Z,78.90
2022-08-09T23:45:37.475Z,79.10
2022-08-09T23:47:58.997Z,79.60
2022-08-09T23:50:25.968Z,80.20
2022-08-09T23:52:53.288Z,80.10
2022-08-09T23:55:20.162Z,80.30
2022-08-09T23:58:07.254Z,80.50
